Time;durP1;ratioP1;P1;durP2;ratioP2;P2;SDS_P1;SDS_P2;PMS_P1;PMS_P2;Temp;Humidity;BMP_temperature;BMP_pressure;BME280_temperature;BME280_humidity;BME280_pressure;Samples;Min_cycle;Max_cycle;Signal;HPM_P1;HPM_P2
2023/04/27 00:01:06;;;;;;;;;;;;;;;;;;5123576;27;19911;-83
2023/04/27 00:03:32;;;;;;;;;;;;;;;;;;5140350;27;19911;-83
2023/04/27 00:05:58;;;;;;;;;;;;;;;;;;5123902;27;19902;-83
2023/04/27 00:08:23;;;;;;;;;;;;;;;;;;5136905;27;19912;-82
2023/04/27 00:10:49;;;;;;;;;;;;;;;;;;5134333;27;19918;-83
2023/04/27 00:13:15;;;;;;;;;;;;;;;;;;5134889;27;19919;-81
2023/04/27 00:15:40;;;;;;;;;;;;;;;;;;5134178;27;19911;-81
2023/04/27 00:18:06;;;;;;;;;;;;;;;;;;5132595;27;19933;-82
2023/04/27 00:20:32;;;;;;;;;;;;;;;;;;5116492;27;19911;-82
2023/04/27 00:22:58;;;;;;;;;;;;;;;;;;5132920;27;19983;-81
2023/04/27 00:25:23;;;;;;;;;;;;;;;;;;5152554;27;19915;-83
2023/04/27 00:27:52;;;;;;;;;;;;;;;;;;5152183;27;19927;-83
2023/04/27 00:30:17;;;;;;;;;;;;;;;;;;5135314;27;19911;-82
2023/04/27 00:32:43;;;;;;;;;;;;;;;;;;5132934;27;19915;-81
2023/04/27 00:35:18;;;;;;;;;;;;;;;;;;5152325;27;20382;-83
2023/04/27 00:37:46;;;;;;;;;;;;;;;;;;5152366;27;19911;-82
2023/04/27 00:40:13;;;;;;;;;;;;;;;;;;5136308;27;19941;-83
2023/04/27 00:42:39;;;;;;;;;;;;;;;;;;5135784;27;19911;-84
2023/04/27 00:45:09;;;;;;;;;;;;;;;;;;5137850;27;19911;-82
2023/04/27 00:47:35;;;;;;;;;;;;;;;;;;5136993;27;19945;-83
2023/04/27 00:50:01;;;;;;;;;;;;;;;;;;5137456;27;19933;-83
2023/04/27 00:52:28;;;;;;;;;;;;;;;;;;5138592;27;19915;-82
2023/04/27 00:54:54;;;;;;;;;;;;;;;;;;5155355;27;19915;-82
2023/04/27 00:57:22;;;;;;;;;;;;;;;;;;5136692;27;19919;-84
2023/04/27 00:59:47;;;;;;;;;;;;;;;;;;5153644;27;19919;-83
2023/04/27 01:02:13;;;;;;;;;;;;;;;;;;5136718;27;19915;-82
2023/04/27 01:04:39;;;;;;;;;;;;;;;;;;5137158;27;19961;-83
2023/04/27 01:07:05;;;;;;;;;;;;;;;;;;5153949;27;19934;-82
2023/04/27 01:09:34;;;;;;;;;;;;;;;;;;5118099;27;19933;-83
2023/04/27 01:12:00;;;;;;;;;;;;;;;;;;5151945;27;19912;-85
2023/04/27 01:14:26;;;;;;;;;;;;;;;;;;5134332;27;19911;-82
2023/04/27 01:16:51;;;;;;;;;;;;;;;;;;5134537;27;19918;-82
2023/04/27 01:19:19;;;;;;;;;;;;;;;;;;5133685;27;19918;-82
2023/04/27 01:21:45;;;;;;;;;;;;;;;;;;5131896;27;19912;-82
2023/04/27 01:24:11;;;;;;;;;;;;;;;;;;5128333;27;19912;-81
2023/04/27 01:26:36;;;;;;;;;;;;;;;;;;5128198;27;19938;-82
2023/04/27 01:29:02;;;;;;;;;;;;;;;;;;5130827;27;20000;-81
2023/04/27 01:31:27;;;;;;;;;;;;;;;;;;5152965;27;19932;-81
2023/04/27 01:33:53;;;;;;;;;;;;;;;;;;5154939;27;19941;-81
2023/04/27 01:36:18;;;;;;;;;;;;;;;;;;5136997;27;19923;-81
2023/04/27 01:38:44;;;;;;;;;;;;;;;;;;5154711;27;20412;-80
2023/04/27 01:41:11;;;;;;;;;;;;;;;;;;5090785;22;19974;-83
2023/04/27 01:43:37;;;;;;;;;;;;;;;;;;5052240;28;19916;-80
2023/04/27 01:46:02;;;;;;;;;;;;;;;;;;5068799;28;19913;-81
2023/04/27 01:48:28;;;;;;;;;;;;;;;;;;5068423;28;19920;-80
2023/04/27 01:50:53;;;;;;;;;;;;;;;;;;5068949;28;19916;-81
2023/04/27 01:53:19;;;;;;;;;;;;;;;;;;5052179;28;20030;-81
2023/04/27 01:55:44;;;;;;;;;;;;;;;;;;5035474;28;19913;-82
2023/04/27 01:58:10;;;;;;;;;;;;;;;;;;5051953;28;19956;-80
2023/04/27 02:00:35;;;;;;;;;;;;;;;;;;5035636;28;19913;-80
2023/04/27 02:03:01;;;;;;;;;;;;;;;;;;5051859;28;19920;-80
2023/04/27 02:05:27;;;;;;;;;;;;;;;;;;5051911;28;19917;-82
2023/04/27 02:07:52;;;;;;;;;;;;;;;;;;5035816;28;20039;-80
2023/04/27 02:10:18;;;;;;;;;;;;;;;;;;5051289;28;20070;-79
2023/04/27 02:12:43;;;;;;;;;;;;;;;;;;5051390;28;19971;-78
2023/04/27 02:15:09;;;;;;;;;;;;;;;;;;5051315;28;20003;-79
2023/04/27 02:17:34;;;;;;;;;;;;;;;;;;5052630;28;20334;-80
2023/04/27 02:20:00;;;;;;;;;;;;;;;;;;5053689;28;19913;-86
2023/04/27 02:22:26;;;;;;;;;;;;;;;;;;5039132;28;19947;-79
2023/04/27 02:24:51;;;;;;;;;;;;;;;;;;5069604;28;19912;-80
2023/04/27 02:27:17;;;;;;;;;;;;;;;;;;5051785;28;19913;-81
2023/04/27 02:29:42;;;;;;;;;;;;;;;;;;5052401;28;20288;-79
2023/04/27 02:32:08;;;;;;;;;;;;;;;;;;5052620;28;20003;-82
2023/04/27 02:34:33;;;;;;;;;;;;;;;;;;5052459;28;19952;-78
2023/04/27 02:36:58;;;;;;;;;;;;;;;;;;5053106;28;20353;-80
2023/04/27 02:39:24;;;;;;;;;;;;;;;;;;5052351;28;19920;-81
2023/04/27 02:41:49;;;;;;;;;;;;;;;;;;5052150;28;20007;-79
2023/04/27 02:44:15;;;;;;;;;;;;;;;;;;5035528;28;19913;-82
2023/04/27 02:46:41;;;;;;;;;;;;;;;;;;5068290;28;20276;-80
2023/04/27 02:49:06;;;;;;;;;;;;;;;;;;5035005;28;19913;-80
2023/04/27 02:51:32;;;;;;;;;;;;;;;;;;5051217;28;20377;-81
2023/04/27 02:53:57;;;;;;;;;;;;;;;;;;5034579;28;20373;-80
2023/04/27 02:56:23;;;;;;;;;;;;;;;;;;5051005;28;19912;-82
2023/04/27 02:58:49;;;;;;;;;;;;;;;;;;5068521;28;19917;-80
2023/04/27 03:01:16;;;;;;;;;;;;;;;;;;5040689;28;19919;-82
2023/04/27 03:03:41;;;;;;;;;;;;;;;;;;5074256;28;20296;-83
2023/04/27 03:06:07;;;;;;;;;;;;;;;;;;5058021;28;19920;-80
2023/04/27 03:08:35;;;;;;;;;;;;;;;;;;5074185;28;19916;-82
2023/04/27 03:11:00;;;;;;;;;;;;;;;;;;5074074;28;20318;-78
2023/04/27 03:13:27;;;;;;;;;;;;;;;;;;5074162;28;19920;-82
2023/04/27 03:15:53;;;;;;;;;;;;;;;;;;5039749;28;19999;-81
2023/04/27 03:18:18;;;;;;;;;;;;;;;;;;5057719;28;19919;-83
2023/04/27 03:20:44;;;;;;;;;;;;;;;;;;5059847;28;20407;-84
2023/04/27 03:23:10;;;;;;;;;;;;;;;;;;5045097;28;20276;-85
2023/04/27 03:25:36;;;;;;;;;;;;;;;;;;5044043;28;19913;-83
2023/04/27 03:28:02;;;;;;;;;;;;;;;;;;5060671;28;20000;-83
2023/04/27 03:30:27;;;;;;;;;;;;;;;;;;5064262;28;20284;-84
2023/04/27 03:32:53;;;;;;;;;;;;;;;;;;5061671;28;19924;-78
2023/04/27 03:35:18;;;;;;;;;;;;;;;;;;5078904;28;19917;-81
2023/04/27 03:37:46;;;;;;;;;;;;;;;;;;5044789;28;19912;-80
2023/04/27 03:40:13;;;;;;;;;;;;;;;;;;5064860;28;20463;-80
2023/04/27 03:42:38;;;;;;;;;;;;;;;;;;5065823;28;19923;-82
2023/04/27 03:45:05;;;;;;;;;;;;;;;;;;5063463;28;19913;-81
2023/04/27 03:47:30;;;;;;;;;;;;;;;;;;5062287;28;19920;-79
2023/04/27 03:49:56;;;;;;;;;;;;;;;;;;5069591;28;19913;-80
2023/04/27 03:52:21;;;;;;;;;;;;;;;;;;5054383;28;19927;-80
2023/04/27 03:54:47;;;;;;;;;;;;;;;;;;5064525;28;20283;-81
2023/04/27 03:57:12;;;;;;;;;;;;;;;;;;5055078;28;20372;-82
2023/04/27 03:59:38;;;;;;;;;;;;;;;;;;5071594;28;19913;-81
2023/04/27 04:02:04;;;;;;;;;;;;;;;;;;5054913;28;19944;-82
2023/04/27 04:04:30;;;;;;;;;;;;;;;;;;5054387;28;20023;-85
2023/04/27 04:06:55;;;;;;;;;;;;;;;;;;5053618;28;19913;-82
2023/04/27 04:09:21;;;;;;;;;;;;;;;;;;5053888;28;20009;-83
2023/04/27 04:11:47;;;;;;;;;;;;;;;;;;5053857;28;19913;-86
2023/04/27 04:14:14;;;;;;;;;;;;;;;;;;5070638;28;20020;-86
2023/04/27 04:16:39;;;;;;;;;;;;;;;;;;5053326;28;19948;-85
2023/04/27 04:19:05;;;;;;;;;;;;;;;;;;5036406;28;19919;-84
2023/04/27 04:21:31;;;;;;;;;;;;;;;;;;5069493;28;19913;-88
2023/04/27 04:23:56;;;;;;;;;;;;;;;;;;5037864;28;19945;-84
2023/04/27 04:26:22;;;;;;;;;;;;;;;;;;5038186;28;19912;-82
2023/04/27 04:28:47;;;;;;;;;;;;;;;;;;5054441;28;19916;-85
2023/04/27 04:31:16;;;;;;;;;;;;;;;;;;5055078;28;19956;-81
2023/04/27 04:33:41;;;;;;;;;;;;;;;;;;5055693;28;19917;-82
2023/04/27 04:36:07;;;;;;;;;;;;;;;;;;5070164;28;20330;-85
2023/04/27 04:38:36;;;;;;;;;;;;;;;;;;5070145;28;19919;-83
2023/04/27 04:41:02;;;;;;;;;;;;;;;;;;5070208;28;19916;-83
2023/04/27 04:43:30;;;;;;;;;;;;;;;;;;5037586;28;19920;-83
2023/04/27 04:45:56;;;;;;;;;;;;;;;;;;5071169;28;19913;-83
2023/04/27 04:48:22;;;;;;;;;;;;;;;;;;5070532;28;19913;-82
2023/04/27 04:50:48;;;;;;;;;;;;;;;;;;5071609;28;19917;-85
2023/04/27 04:53:14;;;;;;;;;;;;;;;;;;5052860;28;20402;-84
2023/04/27 04:55:40;;;;;;;;;;;;;;;;;;5052568;28;19917;-81
2023/04/27 04:58:07;;;;;;;;;;;;;;;;;;5054442;28;19948;-88
2023/04/27 05:00:35;;;;;;;;;;;;;;;;;;5052600;28;19928;-90
2023/04/27 05:03:01;;;;;;;;;;;;;;;;;;5036724;28;19943;-88
2023/04/27 05:05:27;;;;;;;;;;;;;;;;;;5053816;28;20320;-88
2023/04/27 05:07:52;;;;;;;;;;;;;;;;;;5052557;28;19913;-86
2023/04/27 05:10:18;;;;;;;;;;;;;;;;;;5052744;28;20334;-86
2023/04/27 05:12:43;;;;;;;;;;;;;;;;;;5053542;28;19971;-85
2023/04/27 05:15:09;;;;;;;;;;;;;;;;;;5053068;28;19917;-84
2023/04/27 05:17:35;;;;;;;;;;;;;;;;;;5052948;28;19913;-91
2023/04/27 05:20:01;;;;;;;;;;;;;;;;;;5052342;28;19913;-88
2023/04/27 05:22:26;;;;;;;;;;;;;;;;;;5051885;28;19913;-85
2023/04/27 05:24:54;;;;;;;;;;;;;;;;;;5052081;28;20030;-87
2023/04/27 05:27:20;;;;;;;;;;;;;;;;;;5052045;28;19913;-84
2023/04/27 05:29:48;;;;;;;;;;;;;;;;;;5035986;28;19913;-88
2023/04/27 05:32:14;;;;;;;;;;;;;;;;;;5053333;28;19912;-86
2023/04/27 05:34:43;;;;;;;;;;;;;;;;;;5053732;28;19912;-88
2023/04/27 05:37:10;;;;;;;;;;;;;;;;;;5069027;28;19966;-86
2023/04/27 05:39:36;;;;;;;;;;;;;;;;;;5068312;28;19958;-89
2023/04/27 05:42:02;;;;;;;;;;;;;;;;;;5052855;28;19924;-85
2023/04/27 05:44:28;;;;;;;;;;;;;;;;;;5052349;28;19912;-79
2023/04/27 05:46:54;;;;;;;;;;;;;;;;;;5068437;28;19920;-87
2023/04/27 05:49:21;;;;;;;;;;;;;;;;;;5069263;28;19920;-83
2023/04/27 05:51:47;;;;;;;;;;;;;;;;;;5054948;28;20016;-84
2023/04/27 05:54:12;;;;;;;;;;;;;;;;;;5069814;28;19943;-84
2023/04/27 05:56:38;;;;;;;;;;;;;;;;;;5070102;28;19916;-85
2023/04/27 05:59:03;;;;;;;;;;;;;;;;;;5069397;28;20272;-83
2023/04/27 06:01:29;;;;;;;;;;;;;;;;;;5053804;28;20276;-85
2023/04/27 06:03:59;;;;;;;;;;;;;;;;;;5052610;28;19921;-89
2023/04/27 06:06:25;;;;;;;;;;;;;;;;;;5068983;28;19913;-88
2023/04/27 06:08:50;;;;;;;;;;;;;;;;;;5053242;28;20351;-86
2023/04/27 06:11:19;;;;;;;;;;;;;;;;;;5051639;28;19924;-88
2023/04/27 06:13:45;;;;;;;;;;;;;;;;;;5051135;28;19940;-85
2023/04/27 06:16:10;;;;;;;;;;;;;;;;;;5051588;28;19913;-84
2023/04/27 06:18:36;;;;;;;;;;;;;;;;;;5051459;28;20240;-85
2023/04/27 06:21:02;;;;;;;;;;;;;;;;;;5051390;28;20348;-90
2023/04/27 06:23:28;;;;;;;;;;;;;;;;;;5068112;28;19913;-86
2023/04/27 06:25:54;;;;;;;;;;;;;;;;;;5051085;28;19936;-86
2023/04/27 06:28:19;;;;;;;;;;;;;;;;;;5034607;28;20285;-87
2023/04/27 06:30:45;;;;;;;;;;;;;;;;;;5052283;28;19913;-88
2023/04/27 06:33:10;;;;;;;;;;;;;;;;;;5034471;28;19974;-87
2023/04/27 06:35:36;;;;;;;;;;;;;;;;;;5052247;28;19963;-85
2023/04/27 06:38:01;;;;;;;;;;;;;;;;;;5071189;28;20376;-81
2023/04/27 06:40:27;;;;;;;;;;;;;;;;;;5055279;28;19917;-81
2023/04/27 06:42:53;;;;;;;;;;;;;;;;;;5054217;28;20311;-82
2023/04/27 06:45:18;;;;;;;;;;;;;;;;;;5054234;28;19924;-85
2023/04/27 06:47:44;;;;;;;;;;;;;;;;;;5037950;28;20299;-86
2023/04/27 06:50:10;;;;;;;;;;;;;;;;;;5054618;28;19919;-82
2023/04/27 06:52:35;;;;;;;;;;;;;;;;;;5054413;28;19916;-85
2023/04/27 06:55:01;;;;;;;;;;;;;;;;;;5070689;28;20538;-82
2023/04/27 06:57:26;;;;;;;;;;;;;;;;;;5070936;28;19948;-83
2023/04/27 06:59:52;;;;;;;;;;;;;;;;;;5055352;28;19936;-80
2023/04/27 07:02:17;;;;;;;;;;;;;;;;;;5054528;28;19913;-81
2023/04/27 07:04:43;;;;;;;;;;;;;;;;;;5055433;28;19967;-80
2023/04/27 07:07:09;;;;;;;;;;;;;;;;;;5055761;28;19978;-83
2023/04/27 07:09:34;;;;;;;;;;;;;;;;;;5070841;28;19913;-80
2023/04/27 07:12:00;;;;;;;;;;;;;;;;;;5055351;28;19917;-81
2023/04/27 07:14:25;;;;;;;;;;;;;;;;;;5070375;28;20007;-80
2023/04/27 07:16:52;;;;;;;;;;;;;;;;;;5053412;28;20047;-84
2023/04/27 07:19:17;;;;;;;;;;;;;;;;;;5053835;28;19959;-81
2023/04/27 07:21:42;;;;;;;;;;;;;;;;;;5070402;28;19912;-81
2023/04/27 07:24:08;;;;;;;;;;;;;;;;;;5053733;28;19939;-83
2023/04/27 07:26:35;;;;;;;;;;;;;;;;;;5053580;28;20264;-80
2023/04/27 07:29:00;;;;;;;;;;;;;;;;;;5058355;28;19912;-80
2023/04/27 07:31:26;;;;;;;;;;;;;;;;;;5070026;28;19913;-81
2023/04/27 07:33:52;;;;;;;;;;;;;;;;;;5070016;28;19917;-82
2023/04/27 07:36:18;;;;;;;;;;;;;;;;;;5053183;28;20269;-83
2023/04/27 07:38:44;;;;;;;;;;;;;;;;;;5069798;28;19995;-79
2023/04/27 07:46:25;;;;;;;;;;;;;;;;;;5057910;28;19909;-83
2023/04/27 07:48:59;;;;;;;;;;;;;;;;;;5057821;28;19897;-82
2023/04/27 07:51:35;;;;;;;;;;;;;;;;;;5043069;28;19897;-83
2023/04/27 07:54:04;;;;;;;;;;;;;;;;;;5058432;28;19925;-83
2023/04/27 07:56:30;;;;;;;;;;;;;;;;;;5058279;28;19897;-81
2023/04/27 07:59:04;;;;;;;;;;;;;;;;;;5042451;28;19972;-81
2023/04/27 08:01:32;;;;;;;;;;;;;;;;;;5056493;28;19913;-81
2023/04/27 08:03:57;;;;;;;;;;;;;;;;;;5057668;28;19920;-80
2023/04/27 08:06:23;;;;;;;;;;;;;;;;;;5044514;28;19913;-79
2023/04/27 08:08:48;;;;;;;;;;;;;;;;;;5039777;28;19920;-79
2023/04/27 08:11:13;;;;;;;;;;;;;;;;;;5038817;28;20357;-80
2023/04/27 08:13:39;;;;;;;;;;;;;;;;;;5039800;28;19924;-79
2023/04/27 08:16:04;;;;;;;;;;;;;;;;;;5036835;28;20380;-79
2023/04/27 08:18:30;;;;;;;;;;;;;;;;;;5037645;28;20285;-79
2023/04/27 08:20:55;;;;;;;;;;;;;;;;;;5017719;28;19944;-79
2023/04/27 08:23:20;;;;;;;;;;;;;;;;;;5035248;28;19913;-79
2023/04/27 08:25:46;;;;;;;;;;;;;;;;;;5034665;28;20389;-78
2023/04/27 08:28:11;;;;;;;;;;;;;;;;;;5036275;28;19959;-79
2023/04/27 08:30:37;;;;;;;;;;;;;;;;;;5035000;28;19943;-79
2023/04/27 08:33:02;;;;;;;;;;;;;;;;;;5045508;28;19932;-82
2023/04/27 08:35:28;;;;;;;;;;;;;;;;;;5047540;28;20369;-79
2023/04/27 08:37:53;;;;;;;;;;;;;;;;;;5016973;28;19913;-79
2023/04/27 08:40:19;;;;;;;;;;;;;;;;;;5016899;28;20369;-79
2023/04/27 08:42:45;;;;;;;;;;;;;;;;;;5034928;28;19942;-80
2023/04/27 08:45:10;;;;;;;;;;;;;;;;;;5033939;28;19928;-79
2023/04/27 08:47:36;;;;;;;;;;;;;;;;;;5033696;28;19913;-80
2023/04/27 08:50:01;;;;;;;;;;;;;;;;;;5033073;28;20395;-78
2023/04/27 08:52:27;;;;;;;;;;;;;;;;;;5016255;28;20387;-79
2023/04/27 08:54:52;;;;;;;;;;;;;;;;;;5033745;28;19913;-79
2023/04/27 08:57:18;;;;;;;;;;;;;;;;;;5032013;28;19953;-79
2023/04/27 08:59:44;;;;;;;;;;;;;;;;;;5032426;28;20386;-79
2023/04/27 09:02:09;;;;;;;;;;;;;;;;;;5033240;28;20006;-79
2023/04/27 09:04:35;;;;;;;;;;;;;;;;;;5016323;28;19913;-79
2023/04/27 09:07:00;;;;;;;;;;;;;;;;;;5034148;28;19917;-79
2023/04/27 09:09:25;;;;;;;;;;;;;;;;;;5032590;28;20296;-79
2023/04/27 09:11:51;;;;;;;;;;;;;;;;;;5034099;28;19913;-78
2023/04/27 09:14:16;;;;;;;;;;;;;;;;;;5032275;28;19948;-79
2023/04/27 09:16:42;;;;;;;;;;;;;;;;;;5032209;28;19913;-78
2023/04/27 09:19:07;;;;;;;;;;;;;;;;;;5016951;28;19920;-79
2023/04/27 09:21:33;;;;;;;;;;;;;;;;;;5035168;28;19914;-78
2023/04/27 09:23:58;;;;;;;;;;;;;;;;;;5033855;28;19963;-78
2023/04/27 09:26:24;;;;;;;;;;;;;;;;;;5023734;28;19914;-78
2023/04/27 09:28:50;;;;;;;;;;;;;;;;;;5034891;28;19913;-78
2023/04/27 09:31:15;;;;;;;;;;;;;;;;;;5031976;28;19913;-79
2023/04/27 09:33:41;;;;;;;;;;;;;;;;;;5022628;28;19918;-79
2023/04/27 09:36:06;;;;;;;;;;;;;;;;;;5025053;28;19956;-79
2023/04/27 09:38:32;;;;;;;;;;;;;;;;;;5031040;28;19920;-79
2023/04/27 09:40:57;;;;;;;;;;;;;;;;;;5012173;28;19913;-79
2023/04/27 09:43:23;;;;;;;;;;;;;;;;;;5015824;28;19940;-79
2023/04/27 09:45:49;;;;;;;;;;;;;;;;;;5012836;28;20427;-79
2023/04/27 09:48:14;;;;;;;;;;;;;;;;;;5027467;28;19913;-79
2023/04/27 09:50:39;;;;;;;;;;;;;;;;;;5031376;28;20390;-78
2023/04/27 09:53:05;;;;;;;;;;;;;;;;;;5031454;28;19923;-78
2023/04/27 09:55:30;;;;;;;;;;;;;;;;;;5029188;28;19917;-78
2023/04/27 09:57:56;;;;;;;;;;;;;;;;;;5026283;28;20377;-78
2023/04/27 10:00:21;;;;;;;;;;;;;;;;;;5031298;28;20000;-78
2023/04/27 10:02:46;;;;;;;;;;;;;;;;;;5031969;28;19955;-78
2023/04/27 10:05:12;;;;;;;;;;;;;;;;;;5032075;28;19913;-78
2023/04/27 10:07:38;;;;;;;;;;;;;;;;;;5015052;28;19913;-78
2023/04/27 10:10:04;;;;;;;;;;;;;;;;;;5033716;28;20397;-79
2023/04/27 10:12:38;;;;;;;;;;;;;;;;;;5035140;28;19925;-78
2023/04/27 10:15:03;;;;;;;;;;;;;;;;;;5036135;28;19945;-79
2023/04/27 10:17:29;;;;;;;;;;;;;;;;;;5036403;28;19959;-79
2023/04/27 10:19:54;;;;;;;;;;;;;;;;;;5032627;28;19913;-80
2023/04/27 10:22:20;;;;;;;;;;;;;;;;;;5044690;28;19917;-80
2023/04/27 10:24:47;;;;;;;;;;;;;;;;;;5031514;28;19909;-82
2023/04/27 10:27:12;;;;;;;;;;;;;;;;;;5031704;28;19913;-82
2023/04/27 10:29:38;;;;;;;;;;;;;;;;;;5044071;28;19967;-81
2023/04/27 10:32:04;;;;;;;;;;;;;;;;;;5026356;28;19921;-82
2023/04/27 10:34:29;;;;;;;;;;;;;;;;;;5052566;28;19917;-84
2023/04/27 10:36:55;;;;;;;;;;;;;;;;;;5035766;28;19913;-83
2023/04/27 10:39:21;;;;;;;;;;;;;;;;;;5010335;28;19918;-84
2023/04/27 10:41:47;;;;;;;;;;;;;;;;;;5028910;28;19920;-81
2023/04/27 10:44:12;;;;;;;;;;;;;;;;;;5030635;28;20312;-82
2023/04/27 10:46:38;;;;;;;;;;;;;;;;;;5034329;28;19924;-80
2023/04/27 10:49:03;;;;;;;;;;;;;;;;;;5024373;28;19913;-80
2023/04/27 10:51:29;;;;;;;;;;;;;;;;;;5046634;28;19913;-80
2023/04/27 10:53:54;;;;;;;;;;;;;;;;;;5014423;28;20439;-80
2023/04/27 10:56:20;;;;;;;;;;;;;;;;;;5043824;28;20004;-82
2023/04/27 10:58:45;;;;;;;;;;;;;;;;;;5047719;28;20300;-82
2023/04/27 11:01:11;;;;;;;;;;;;;;;;;;5051680;28;19988;-83
2023/04/27 11:03:37;;;;;;;;;;;;;;;;;;5052994;28;19913;-84
2023/04/27 11:06:03;;;;;;;;;;;;;;;;;;5037841;28;20288;-81
2023/04/27 11:08:29;;;;;;;;;;;;;;;;;;5033528;28;19913;-83
2023/04/27 11:10:55;;;;;;;;;;;;;;;;;;5048826;28;20291;-80
2023/04/27 11:13:20;;;;;;;;;;;;;;;;;;5038141;28;19921;-80
2023/04/27 11:15:46;;;;;;;;;;;;;;;;;;5036775;28;19948;-79
2023/04/27 11:18:11;;;;;;;;;;;;;;;;;;5016403;28;19909;-80
2023/04/27 11:20:37;;;;;;;;;;;;;;;;;;5037084;28;19917;-80
2023/04/27 11:23:02;;;;;;;;;;;;;;;;;;5026308;28;19947;-81
2023/04/27 11:25:28;;;;;;;;;;;;;;;;;;5025654;28;19913;-80
2023/04/27 11:27:53;;;;;;;;;;;;;;;;;;5040226;28;20360;-80
2023/04/27 11:30:20;;;;;;;;;;;;;;;;;;5025055;28;19913;-81
2023/04/27 11:32:48;;;;;;;;;;;;;;;;;;5024980;28;19924;-80
2023/04/27 11:35:20;;;;;;;;;;;;;;;;;;5045374;28;19909;-82
2023/04/27 11:40:20;;;;;;;;;;;;;;;;;;5509051;22;19929;-77
2023/04/27 11:42:46;;;;;;;;;;;;;;;;;;4997838;28;19968;-77
2023/04/27 11:45:12;;;;;;;;;;;;;;;;;;5015375;28;20197;-78
2023/04/27 11:56:36;;;;;;;;;;;;;;;;;;4946618;28;19917;-82
2023/04/27 11:59:05;;;;;;;;;;;;;;;;;;4983361;28;19917;-83
2023/04/27 12:01:31;;;;;;;;;;;;;;;;;;5005803;28;20265;-82
2023/04/27 12:03:57;;;;;;;;;;;;;;;;;;5012673;23;20436;-79
2023/04/27 12:06:22;;;;;;;;;;;;;;;;;;5046176;28;19923;-80
2023/04/27 12:08:47;;;;;;;;;;;;;;;;;;5055962;28;19913;-79
2023/04/27 12:11:13;;;;;;;;;;;;;;;;;;5068587;28;19913;-80
2023/04/27 12:13:38;;;;;;;;;;;;;;;;;;5058617;28;19923;-81
2023/04/27 12:16:04;;;;;;;;;;;;;;;;;;5069441;28;20366;-79
2023/04/27 12:18:30;;;;;;;;;;;;;;;;;;5067895;28;19913;-80
2023/04/27 12:20:55;;;;;;;;;;;;;;;;;;5057584;28;19913;-78
2023/04/27 12:23:20;;;;;;;;;;;;;;;;;;5047336;28;20007;-80
2023/04/27 12:25:46;;;;;;;;;;;;;;;;;;5021791;28;19920;-80
2023/04/27 12:28:16;;;;;;;;;;;;;;;;;;5044313;28;19951;-80
2023/04/27 12:30:42;;;;;;;;;;;;;;;;;;5054166;28;19913;-80
2023/04/27 12:33:09;;;;;;;;;;;;;;;;;;5038518;28;19924;-81
2023/04/27 12:35:35;;;;;;;;;;;;;;;;;;5054266;28;19948;-81
2023/04/27 12:38:02;;;;;;;;;;;;;;;;;;5040720;28;19979;-80
2023/04/27 12:40:27;;;;;;;;;;;;;;;;;;5045544;28;19913;-80
2023/04/27 12:42:52;;;;;;;;;;;;;;;;;;5053777;28;19919;-80
2023/04/27 12:45:18;;;;;;;;;;;;;;;;;;5054635;28;20405;-80
2023/04/27 12:47:43;;;;;;;;;;;;;;;;;;5051162;28;19912;-80
2023/04/27 12:50:09;;;;;;;;;;;;;;;;;;5049595;28;20275;-80
2023/04/27 12:52:34;;;;;;;;;;;;;;;;;;5050154;28;19925;-85
2023/04/27 12:54:59;;;;;;;;;;;;;;;;;;5047471;28;19921;-79
2023/04/27 12:57:25;;;;;;;;;;;;;;;;;;5039868;28;19913;-79
2023/04/27 12:59:50;;;;;;;;;;;;;;;;;;5044185;28;19993;-80
2023/04/27 13:02:16;;;;;;;;;;;;;;;;;;5046249;28;19966;-79
2023/04/27 13:04:42;;;;;;;;;;;;;;;;;;5048138;28;21371;-82
2023/04/27 13:07:07;;;;;;;;;;;;;;;;;;5011713;28;20371;-81
2023/04/27 13:09:32;;;;;;;;;;;;;;;;;;5039242;28;19913;-85
2023/04/27 13:12:01;;;;;;;;;;;;;;;;;;5017390;28;19935;-84
2023/04/27 13:14:27;;;;;;;;;;;;;;;;;;5029010;28;19999;-84
2023/04/27 13:16:52;;;;;;;;;;;;;;;;;;5050366;28;20290;-91
2023/04/27 13:19:18;;;;;;;;;;;;;;;;;;5053819;28;20370;-81
2023/04/27 13:21:43;;;;;;;;;;;;;;;;;;5033813;28;19959;-83
2023/04/27 13:24:09;;;;;;;;;;;;;;;;;;5032424;28;20172;-86
2023/04/27 13:26:34;;;;;;;;;;;;;;;;;;5053956;28;19913;-84
2023/04/27 13:29:03;;;;;;;;;;;;;;;;;;5026056;28;19913;-85
2023/04/27 13:31:36;;;;;;;;;;;;;;;;;;5043676;28;19914;-82
2023/04/27 13:34:04;;;;;;;;;;;;;;;;;;5040586;28;19917;-82
2023/04/27 13:36:30;;;;;;;;;;;;;;;;;;5045178;28;19920;-83
2023/04/27 13:38:56;;;;;;;;;;;;;;;;;;5030966;28;19920;-84
2023/04/27 13:41:22;;;;;;;;;;;;;;;;;;5048301;28;19942;-83
2023/04/27 13:43:48;;;;;;;;;;;;;;;;;;5009835;28;19920;-85
2023/04/27 13:46:14;;;;;;;;;;;;;;;;;;5041586;28;20337;-87
2023/04/27 13:48:39;;;;;;;;;;;;;;;;;;5028221;28;19967;-81
2023/04/27 13:51:05;;;;;;;;;;;;;;;;;;5040847;28;19921;-82
2023/04/27 13:53:30;;;;;;;;;;;;;;;;;;5041171;28;19917;-86
2023/04/27 13:55:58;;;;;;;;;;;;;;;;;;5044281;28;20280;-80
2023/04/27 13:58:23;;;;;;;;;;;;;;;;;;5049394;28;19967;-80
2023/04/27 14:00:50;;;;;;;;;;;;;;;;;;5052519;28;19913;-76
2023/04/27 14:03:16;;;;;;;;;;;;;;;;;;5046486;28;19913;-78
2023/04/27 14:05:42;;;;;;;;;;;;;;;;;;5041808;28;19924;-80
2023/04/27 14:08:07;;;;;;;;;;;;;;;;;;5050720;28;19999;-80
2023/04/27 14:10:33;;;;;;;;;;;;;;;;;;5034204;28;20232;-78
2023/04/27 14:12:58;;;;;;;;;;;;;;;;;;5049087;28;19964;-79
2023/04/27 14:15:23;;;;;;;;;;;;;;;;;;5022669;28;19944;-78
2023/04/27 14:17:49;;;;;;;;;;;;;;;;;;5040981;28;19924;-79
2023/04/27 14:20:15;;;;;;;;;;;;;;;;;;5045731;28;20401;-80
2023/04/27 14:22:40;;;;;;;;;;;;;;;;;;5050526;28;19913;-77
2023/04/27 14:25:06;;;;;;;;;;;;;;;;;;5051605;28;19912;-78
2023/04/27 14:27:31;;;;;;;;;;;;;;;;;;5043874;28;20330;-78
2023/04/27 14:29:56;;;;;;;;;;;;;;;;;;5042195;28;20291;-77
2023/04/27 14:32:22;;;;;;;;;;;;;;;;;;5052258;28;19913;-79
2023/04/27 14:34:47;;;;;;;;;;;;;;;;;;5035330;28;19955;-80
2023/04/27 14:37:13;;;;;;;;;;;;;;;;;;5047623;28;20363;-79
2023/04/27 14:39:38;;;;;;;;;;;;;;;;;;5024202;28;20398;-77
2023/04/27 14:42:03;;;;;;;;;;;;;;;;;;5034034;28;19913;-75
2023/04/27 14:44:30;;;;;;;;;;;;;;;;;;5034249;28;19933;-76
2023/04/27 14:46:57;;;;;;;;;;;;;;;;;;5050399;28;20335;-79
2023/04/27 14:49:22;;;;;;;;;;;;;;;;;;5050443;28;19920;-76
2023/04/27 14:51:47;;;;;;;;;;;;;;;;;;5050179;28;19913;-79
2023/04/27 14:54:13;;;;;;;;;;;;;;;;;;5050275;28;19917;-79
2023/04/27 14:56:38;;;;;;;;;;;;;;;;;;5053385;28;20251;-78
2023/04/27 14:59:03;;;;;;;;;;;;;;;;;;5054201;28;19920;-79
2023/04/27 15:01:29;;;;;;;;;;;;;;;;;;5054091;28;20504;-79
2023/04/27 15:03:55;;;;;;;;;;;;;;;;;;5053048;28;19912;-76
2023/04/27 15:06:21;;;;;;;;;;;;;;;;;;5054209;28;19947;-77
2023/04/27 15:08:46;;;;;;;;;;;;;;;;;;5053764;28;19913;-78
2023/04/27 15:11:12;;;;;;;;;;;;;;;;;;5036861;28;19935;-77
2023/04/27 15:13:37;;;;;;;;;;;;;;;;;;5054801;28;19917;-77
2023/04/27 15:16:05;;;;;;;;;;;;;;;;;;5056500;28;20346;-82
2023/04/27 15:18:31;;;;;;;;;;;;;;;;;;5041196;28;19920;-82
2023/04/27 15:20:56;;;;;;;;;;;;;;;;;;5035517;28;20287;-81
2023/04/27 15:23:22;;;;;;;;;;;;;;;;;;5046513;28;19913;-82
2023/04/27 15:25:47;;;;;;;;;;;;;;;;;;5057919;28;19913;-81
2023/04/27 15:28:13;;;;;;;;;;;;;;;;;;5052957;28;19912;-81
2023/04/27 15:30:38;;;;;;;;;;;;;;;;;;5045797;28;19952;-82
2023/04/27 15:33:03;;;;;;;;;;;;;;;;;;5039639;28;19917;-84
2023/04/27 15:35:29;;;;;;;;;;;;;;;;;;5049170;28;19920;-82
2023/04/27 15:37:55;;;;;;;;;;;;;;;;;;5044578;28;20436;-82
2023/04/27 15:40:20;;;;;;;;;;;;;;;;;;5052617;28;20295;-82
2023/04/27 15:42:45;;;;;;;;;;;;;;;;;;5036814;28;19920;-83
2023/04/27 15:45:11;;;;;;;;;;;;;;;;;;5053425;28;19913;-83
2023/04/27 15:47:36;;;;;;;;;;;;;;;;;;5047681;28;19913;-83
2023/04/27 15:50:02;;;;;;;;;;;;;;;;;;5044301;28;19913;-83
2023/04/27 15:52:27;;;;;;;;;;;;;;;;;;5052698;28;20343;-85
2023/04/27 15:54:52;;;;;;;;;;;;;;;;;;5053782;28;19924;-85
2023/04/27 15:57:18;;;;;;;;;;;;;;;;;;5036437;28;19921;-85
2023/04/27 15:59:43;;;;;;;;;;;;;;;;;;5053454;28;19912;-84
2023/04/27 16:02:09;;;;;;;;;;;;;;;;;;5041833;28;19913;-86
2023/04/27 16:04:49;;;;;;;;;;;;;;;;;;5034198;28;20282;-84
2023/04/27 16:07:14;;;;;;;;;;;;;;;;;;5049088;28;20004;-84
2023/04/27 16:09:39;;;;;;;;;;;;;;;;;;5039375;28;20004;-84
2023/04/27 16:12:05;;;;;;;;;;;;;;;;;;5052695;28;19913;-84
2023/04/27 16:14:30;;;;;;;;;;;;;;;;;;5039011;28;19924;-84
2023/04/27 16:16:58;;;;;;;;;;;;;;;;;;5033774;28;19944;-79
2023/04/27 16:19:24;;;;;;;;;;;;;;;;;;5038536;28;19913;-79
2023/04/27 16:21:49;;;;;;;;;;;;;;;;;;5050666;28;19966;-80
2023/04/27 16:24:15;;;;;;;;;;;;;;;;;;5053163;28;19917;-80
2023/04/27 16:26:40;;;;;;;;;;;;;;;;;;5040869;28;19919;-80
2023/04/27 16:29:06;;;;;;;;;;;;;;;;;;5053873;28;20382;-79
2023/04/27 16:31:31;;;;;;;;;;;;;;;;;;5048238;28;19913;-79
2023/04/27 16:33:56;;;;;;;;;;;;;;;;;;5043415;28;19956;-79
2023/04/27 16:36:22;;;;;;;;;;;;;;;;;;5054205;28;20280;-79
2023/04/27 16:38:47;;;;;;;;;;;;;;;;;;5040182;28;19966;-80
2023/04/27 16:41:12;;;;;;;;;;;;;;;;;;5051800;28;19913;-80
2023/04/27 16:43:38;;;;;;;;;;;;;;;;;;5046510;28;19913;-80
2023/04/27 16:46:05;;;;;;;;;;;;;;;;;;5048773;28;20371;-78
2023/04/27 16:48:30;;;;;;;;;;;;;;;;;;5021288;28;19917;-78
2023/04/27 16:50:56;;;;;;;;;;;;;;;;;;5048048;28;20399;-78
2023/04/27 16:53:21;;;;;;;;;;;;;;;;;;5045416;28;19917;-77